createdAt,value
2022-12-22T06:49:39.360Z,99053.09
2022-12-22T06:52:09.028Z,99052.28
2022-12-22T06:54:36.066Z,99058.38
2022-12-22T06:57:03.385Z,99051.09
2022-12-22T06:59:30.257Z,99047.00
2022-12-22T07:01:57.579Z,99054.38
2022-12-22T07:04:24.595Z,99062.28
2022-12-22T07:06:51.794Z,99062.13
2022-12-22T07:09:18.741Z,99055.19
2022-12-22T07:11:46.027Z,99052.34
2022-12-22T07:14:13.074Z,99055.19
2022-12-22T07:16:40.320Z,99052.75
2022-12-22T07:19:07.412Z,99037.72
2022-12-22T07:21:34.574Z,99032.44
2022-12-22T07:24:01.546Z,99026.16
2022-12-22T07:26:28.785Z,99014.63
2022-12-22T07:28:55.694Z,99010.16
2022-12-22T07:31:23.524Z,98995.50
2022-12-22T07:33:51.328Z,99001.16
2022-12-22T07:36:20.677Z,98999.50
2022-12-22T07:38:51.548Z,98999.88
2022-12-22T07:41:38.860Z,99008.41
2022-12-22T07:44:08.120Z,99017.91
2022-12-22T07:46:38.739Z,99033.19
2022-12-22T07:49:26.476Z,99020.63
2022-12-22T07:51:57.689Z,99016.09
2022-12-22T07:54:26.366Z,99015.25
2022-12-22T09:54:36.106Z,98879.06
2022-12-22T11:02:51.810Z,98786.31
2022-12-22T11:12:23.917Z,98782.84
2022-12-22T11:15:57.738Z,98775.34
2022-12-22T11:19:25.722Z,98767.63
2022-12-22T11:43:13.522Z,98747.28
2022-12-22T11:46:00.292Z,98751.16
2022-12-22T11:49:13.763Z,98753.44
2022-12-22T16:41:18.248Z,98615.00
2022-12-22T16:43:49.145Z,98607.72
2022-12-22T19:06:17.664Z,98551.19
2022-12-22T19:08:47.443Z,98537.59
2022-12-22T19:11:25.160Z,98528.03
2022-12-22T19:13:53.015Z,98545.94
2022-12-22T19:16:26.189Z,98537.59
2022-12-22T19:39:54.572Z,98534.94
2022-12-22T19:42:24.037Z,98539.63
2022-12-22T19:44:51.115Z,98536.59
2022-12-22T19:47:24.395Z,98546.72
2022-12-22T19:49:51.502Z,98552.00
2022-12-22T19:52:18.821Z,98557.31
2022-12-22T20:00:06.534Z,98549.19
2022-12-22T20:02:39.818Z,98549.81
2022-12-22T20:05:38.165Z,98550.03
2022-12-22T23:26:29.918Z,98538.25
2022-12-22T23:29:44.157Z,98535.41
2022-12-22T23:32:12.421Z,98545.16
2022-12-22T23:34:39.744Z,98545.16
2022-12-22T23:37:10.953Z,98540.69
2022-12-22T23:39:40.703Z,98543.34
2022-12-22T23:42:08.232Z,98554.13
2022-12-22T23:44:35.564Z,98555.75
2022-12-22T23:47:03.164Z,98553.31
2022-12-22T23:49:30.513Z,98558.41
2022-12-22T23:51:57.965Z,98552.50
